sensor_id;sensor_type;location;lat;lon;timestamp;P1;durP1;ratioP1;P2;durP2;ratioP2
3405;SDS011;10008;48.682;9.016;2022-07-24T00:00:24;18.03;;;16.20;;
3405;SDS011;10008;48.682;9.016;2022-07-24T00:02:50;18.03;;;15.40;;
3405;SDS011;10008;48.682;9.016;2022-07-24T00:05:16;16.97;;;15.27;;
3405;SDS011;10008;48.682;9.016;2022-07-24T00:07:42;17.43;;;15.70;;
3405;SDS011;10008;48.682;9.016;2022-07-24T00:10:09;17.40;;;15.70;;
3405;SDS011;10008;48.682;9.016;2022-07-24T00:12:35;16.40;;;14.90;;
3405;SDS011;10008;48.682;9.016;2022-07-24T00:15:02;16.60;;;15.00;;
3405;SDS011;10008;48.682;9.016;2022-07-24T00:17:29;17.10;;;15.33;;
3405;SDS011;10008;48.682;9.016;2022-07-24T00:19:54;16.43;;;14.77;;
3405;SDS011;10008;48.682;9.016;2022-07-24T00:22:20;20.57;;;16.07;;
3405;SDS011;10008;48.682;9.016;2022-07-24T00:24:46;16.73;;;15.03;;
3405;SDS011;10008;48.682;9.016;2022-07-24T00:27:12;17.43;;;15.60;;
3405;SDS011;10008;48.682;9.016;2022-07-24T00:29:37;16.37;;;14.77;;
3405;SDS011;10008;48.682;9.016;2022-07-24T00:32:03;17.43;;;15.73;;
3405;SDS011;10008;48.682;9.016;2022-07-24T00:34:29;16.70;;;15.10;;
3405;SDS011;10008;48.682;9.016;2022-07-24T00:36:55;17.17;;;15.50;;
3405;SDS011;10008;48.682;9.016;2022-07-24T00:39:20;18.10;;;16.30;;
3405;SDS011;10008;48.682;9.016;2022-07-24T00:41:47;17.87;;;15.40;;
3405;SDS011;10008;48.682;9.016;2022-07-24T00:44:14;17.30;;;15.50;;
3405;SDS011;10008;48.682;9.016;2022-07-24T00:46:41;16.93;;;15.23;;
3405;SDS011;10008;48.682;9.016;2022-07-24T00:49:10;17.60;;;14.83;;
3405;SDS011;10008;48.682;9.016;2022-07-24T00:51:38;17.23;;;15.43;;
3405;SDS011;10008;48.682;9.016;2022-07-24T00:54:06;17.57;;;15.67;;
3405;SDS011;10008;48.682;9.016;2022-07-24T00:56:33;18.17;;;14.83;;
3405;SDS011;10008;48.682;9.016;2022-07-24T00:59:00;16.80;;;15.10;;
3405;SDS011;10008;48.682;9.016;2022-07-24T01:01:27;17.37;;;15.40;;
3405;SDS011;10008;48.682;9.016;2022-07-24T01:03:53;16.70;;;15.00;;
3405;SDS011;10008;48.682;9.016;2022-07-24T01:06:19;21.33;;;16.20;;
3405;SDS011;10008;48.682;9.016;2022-07-24T01:08:46;16.53;;;14.83;;
3405;SDS011;10008;48.682;9.016;2022-07-24T01:11:12;15.93;;;14.23;;
3405;SDS011;10008;48.682;9.016;2022-07-24T01:13:39;16.83;;;15.13;;
3405;SDS011;10008;48.682;9.016;2022-07-24T01:16:06;17.47;;;15.50;;
3405;SDS011;10008;48.682;9.016;2022-07-24T01:18:32;16.87;;;15.13;;
3405;SDS011;10008;48.682;9.016;2022-07-24T01:20:58;16.33;;;14.63;;
3405;SDS011;10008;48.682;9.016;2022-07-24T01:23:24;16.93;;;14.37;;
3405;SDS011;10008;48.682;9.016;2022-07-24T01:25:50;16.97;;;15.37;;
3405;SDS011;10008;48.682;9.016;2022-07-24T01:28:16;17.60;;;15.90;;
3405;SDS011;10008;48.682;9.016;2022-07-24T01:30:42;19.67;;;15.13;;
3405;SDS011;10008;48.682;9.016;2022-07-24T01:33:09;18.77;;;16.77;;
3405;SDS011;10008;48.682;9.016;2022-07-24T01:35:34;17.80;;;15.77;;
3405;SDS011;10008;48.682;9.016;2022-07-24T01:38:00;17.47;;;15.73;;
3405;SDS011;10008;48.682;9.016;2022-07-24T01:40:26;17.13;;;15.30;;
3405;SDS011;10008;48.682;9.016;2022-07-24T01:42:52;17.63;;;15.83;;
3405;SDS011;10008;48.682;9.016;2022-07-24T01:45:18;16.87;;;15.17;;
3405;SDS011;10008;48.682;9.016;2022-07-24T01:47:45;17.23;;;15.43;;
3405;SDS011;10008;48.682;9.016;2022-07-24T01:50:11;16.73;;;15.03;;
3405;SDS011;10008;48.682;9.016;2022-07-24T01:52:37;19.10;;;17.20;;
3405;SDS011;10008;48.682;9.016;2022-07-24T01:55:03;19.10;;;15.37;;
3405;SDS011;10008;48.682;9.016;2022-07-24T01:57:30;16.77;;;15.13;;
3405;SDS011;10008;48.682;9.016;2022-07-24T01:59:57;16.00;;;14.30;;
3405;SDS011;10008;48.682;9.016;2022-07-24T02:02:24;16.80;;;14.33;;
3405;SDS011;10008;48.682;9.016;2022-07-24T02:04:50;18.57;;;14.50;;
3405;SDS011;10008;48.682;9.016;2022-07-24T02:07:16;17.00;;;15.20;;
3405;SDS011;10008;48.682;9.016;2022-07-24T02:09:42;17.00;;;15.20;;
3405;SDS011;10008;48.682;9.016;2022-07-24T02:12:07;17.43;;;14.30;;
3405;SDS011;10008;48.682;9.016;2022-07-24T02:14:33;16.53;;;14.93;;
3405;SDS011;10008;48.682;9.016;2022-07-24T02:16:59;17.53;;;15.63;;
3405;SDS011;10008;48.682;9.016;2022-07-24T02:19:25;18.80;;;15.87;;
3405;SDS011;10008;48.682;9.016;2022-07-24T02:21:51;17.43;;;14.33;;
3405;SDS011;10008;48.682;9.016;2022-07-24T02:24:16;16.17;;;14.47;;
3405;SDS011;10008;48.682;9.016;2022-07-24T02:26:42;16.97;;;15.30;;
3405;SDS011;10008;48.682;9.016;2022-07-24T02:29:08;16.17;;;14.47;;
3405;SDS011;10008;48.682;9.016;2022-07-24T02:31:34;18.07;;;15.37;;
3405;SDS011;10008;48.682;9.016;2022-07-24T02:33:59;17.23;;;15.43;;
3405;SDS011;10008;48.682;9.016;2022-07-24T02:36:25;16.70;;;15.00;;
3405;SDS011;10008;48.682;9.016;2022-07-24T02:38:51;16.37;;;14.70;;
3405;SDS011;10008;48.682;9.016;2022-07-24T02:41:17;16.70;;;15.00;;
3405;SDS011;10008;48.682;9.016;2022-07-24T02:43:43;15.73;;;14.23;;
3405;SDS011;10008;48.682;9.016;2022-07-24T02:46:09;17.10;;;15.40;;
3405;SDS011;10008;48.682;9.016;2022-07-24T02:48:35;16.67;;;15.00;;
3405;SDS011;10008;48.682;9.016;2022-07-24T02:51:01;15.43;;;13.83;;
3405;SDS011;10008;48.682;9.016;2022-07-24T02:53:27;17.50;;;14.77;;
3405;SDS011;10008;48.682;9.016;2022-07-24T02:55:54;15.40;;;13.80;;
3405;SDS011;10008;48.682;9.016;2022-07-24T02:58:19;15.43;;;13.83;;
3405;SDS011;10008;48.682;9.016;2022-07-24T03:00:45;16.43;;;14.70;;
3405;SDS011;10008;48.682;9.016;2022-07-24T03:03:11;16.17;;;14.47;;
3405;SDS011;10008;48.682;9.016;2022-07-24T03:05:37;16.30;;;13.63;;
3405;SDS011;10008;48.682;9.016;2022-07-24T03:08:03;18.93;;;13.47;;
3405;SDS011;10008;48.682;9.016;2022-07-24T03:10:29;15.47;;;13.90;;
3405;SDS011;10008;48.682;9.016;2022-07-24T03:12:54;15.67;;;14.00;;
3405;SDS011;10008;48.682;9.016;2022-07-24T03:15:20;16.20;;;14.60;;
3405;SDS011;10008;48.682;9.016;2022-07-24T03:17:50;15.77;;;14.17;;
3405;SDS011;10008;48.682;9.016;2022-07-24T03:20:17;16.90;;;14.37;;
3405;SDS011;10008;48.682;9.016;2022-07-24T03:22:44;15.90;;;14.40;;
3405;SDS011;10008;48.682;9.016;2022-07-24T03:25:10;15.33;;;13.73;;
3405;SDS011;10008;48.682;9.016;2022-07-24T03:27:36;15.77;;;14.07;;
3405;SDS011;10008;48.682;9.016;2022-07-24T03:30:03;15.47;;;13.87;;
3405;SDS011;10008;48.682;9.016;2022-07-24T03:32:30;15.77;;;14.17;;
3405;SDS011;10008;48.682;9.016;2022-07-24T03:34:55;15.90;;;14.17;;
3405;SDS011;10008;48.682;9.016;2022-07-24T03:37:21;15.50;;;14.00;;
3405;SDS011;10008;48.682;9.016;2022-07-24T03:39:47;17.03;;;14.77;;
3405;SDS011;10008;48.682;9.016;2022-07-24T03:42:13;16.63;;;14.93;;
3405;SDS011;10008;48.682;9.016;2022-07-24T03:44:38;17.23;;;15.43;;
3405;SDS011;10008;48.682;9.016;2022-07-24T03:47:04;16.70;;;14.97;;
3405;SDS011;10008;48.682;9.016;2022-07-24T03:49:30;15.67;;;14.07;;
3405;SDS011;10008;48.682;9.016;2022-07-24T03:51:56;16.37;;;14.67;;
3405;SDS011;10008;48.682;9.016;2022-07-24T03:54:22;16.40;;;14.10;;
3405;SDS011;10008;48.682;9.016;2022-07-24T03:56:48;18.20;;;14.80;;
3405;SDS011;10008;48.682;9.016;2022-07-24T03:59:14;15.60;;;13.90;;
3405;SDS011;10008;48.682;9.016;2022-07-24T04:01:41;15.60;;;13.93;;
3405;SDS011;10008;48.682;9.016;2022-07-24T04:04:06;16.53;;;14.20;;
3405;SDS011;10008;48.682;9.016;2022-07-24T04:06:33;14.97;;;13.40;;
3405;SDS011;10008;48.682;9.016;2022-07-24T04:08:59;15.90;;;14.30;;
3405;SDS011;10008;48.682;9.016;2022-07-24T04:11:26;15.27;;;13.67;;
3405;SDS011;10008;48.682;9.016;2022-07-24T04:13:52;15.90;;;14.30;;
3405;SDS011;10008;48.682;9.016;2022-07-24T04:16:18;16.10;;;14.40;;
3405;SDS011;10008;48.682;9.016;2022-07-24T04:18:44;15.23;;;13.73;;
3405;SDS011;10008;48.682;9.016;2022-07-24T04:21:10;15.43;;;13.83;;
3405;SDS011;10008;48.682;9.016;2022-07-24T04:23:36;15.33;;;13.73;;
3405;SDS011;10008;48.682;9.016;2022-07-24T04:26:02;15.50;;;12.13;;
3405;SDS011;10008;48.682;9.016;2022-07-24T04:28:29;13.10;;;11.70;;
3405;SDS011;10008;48.682;9.016;2022-07-24T04:30:55;13.73;;;12.30;;
3405;SDS011;10008;48.682;9.016;2022-07-24T04:33:21;14.70;;;13.20;;
3405;SDS011;10008;48.682;9.016;2022-07-24T04:35:47;14.47;;;12.70;;
3405;SDS011;10008;48.682;9.016;2022-07-24T04:38:12;13.73;;;12.33;;
3405;SDS011;10008;48.682;9.016;2022-07-24T04:40:39;16.23;;;13.00;;
3405;SDS011;10008;48.682;9.016;2022-07-24T04:43:05;14.53;;;12.63;;
3405;SDS011;10008;48.682;9.016;2022-07-24T04:45:31;13.37;;;11.30;;
3405;SDS011;10008;48.682;9.016;2022-07-24T04:47:56;15.63;;;13.53;;
3405;SDS011;10008;48.682;9.016;2022-07-24T04:50:22;14.77;;;13.10;;
3405;SDS011;10008;48.682;9.016;2022-07-24T04:52:53;14.60;;;11.97;;
3405;SDS011;10008;48.682;9.016;2022-07-24T04:55:19;14.83;;;13.10;;
3405;SDS011;10008;48.682;9.016;2022-07-24T04:57:45;15.40;;;13.00;;
3405;SDS011;10008;48.682;9.016;2022-07-24T05:00:12;15.50;;;13.83;;
3405;SDS011;10008;48.682;9.016;2022-07-24T05:02:39;14.13;;;12.73;;
3405;SDS011;10008;48.682;9.016;2022-07-24T05:05:05;14.40;;;12.70;;
3405;SDS011;10008;48.682;9.016;2022-07-24T05:07:31;15.33;;;13.73;;
3405;SDS011;10008;48.682;9.016;2022-07-24T05:09:57;15.40;;;13.80;;
3405;SDS011;10008;48.682;9.016;2022-07-24T05:12:24;17.10;;;13.00;;
3405;SDS011;10008;48.682;9.016;2022-07-24T05:14:50;17.13;;;14.20;;
3405;SDS011;10008;48.682;9.016;2022-07-24T05:17:16;14.80;;;13.27;;
3405;SDS011;10008;48.682;9.016;2022-07-24T05:19:42;14.33;;;12.83;;
3405;SDS011;10008;48.682;9.016;2022-07-24T05:22:08;15.50;;;13.87;;
3405;SDS011;10008;48.682;9.016;2022-07-24T05:24:33;14.60;;;13.00;;
3405;SDS011;10008;48.682;9.016;2022-07-24T05:26:59;17.50;;;14.10;;
3405;SDS011;10008;48.682;9.016;2022-07-24T05:29:25;15.07;;;13.57;;
3405;SDS011;10008;48.682;9.016;2022-07-24T05:31:51;15.47;;;13.87;;
3405;SDS011;10008;48.682;9.016;2022-07-24T05:34:19;15.30;;;13.70;;
3405;SDS011;10008;48.682;9.016;2022-07-24T05:36:46;15.53;;;13.80;;
3405;SDS011;10008;48.682;9.016;2022-07-24T05:39:12;15.63;;;14.03;;
3405;SDS011;10008;48.682;9.016;2022-07-24T05:41:38;14.57;;;13.10;;
3405;SDS011;10008;48.682;9.016;2022-07-24T05:44:04;14.47;;;12.47;;
3405;SDS011;10008;48.682;9.016;2022-07-24T05:46:30;14.50;;;12.97;;
3405;SDS011;10008;48.682;9.016;2022-07-24T05:48:56;13.50;;;12.10;;
3405;SDS011;10008;48.682;9.016;2022-07-24T05:51:21;14.17;;;12.67;;
3405;SDS011;10008;48.682;9.016;2022-07-24T05:53:47;13.30;;;12.00;;
3405;SDS011;10008;48.682;9.016;2022-07-24T05:56:13;12.73;;;11.43;;
3405;SDS011;10008;48.682;9.016;2022-07-24T05:58:39;13.33;;;11.83;;
3405;SDS011;10008;48.682;9.016;2022-07-24T06:01:05;13.10;;;11.80;;
3405;SDS011;10008;48.682;9.016;2022-07-24T06:03:31;13.13;;;11.73;;
3405;SDS011;10008;48.682;9.016;2022-07-24T06:05:57;12.80;;;11.17;;
3405;SDS011;10008;48.682;9.016;2022-07-24T06:08:22;14.40;;;12.90;;
3405;SDS011;10008;48.682;9.016;2022-07-24T06:10:48;13.73;;;11.83;;
3405;SDS011;10008;48.682;9.016;2022-07-24T06:13:14;13.83;;;11.47;;
3405;SDS011;10008;48.682;9.016;2022-07-24T06:15:40;12.30;;;11.07;;
3405;SDS011;10008;48.682;9.016;2022-07-24T06:18:05;11.70;;;10.50;;
3405;SDS011;10008;48.682;9.016;2022-07-24T06:20:31;11.87;;;10.50;;
3405;SDS011;10008;48.682;9.016;2022-07-24T06:22:57;13.60;;;10.67;;
3405;SDS011;10008;48.682;9.016;2022-07-24T06:25:23;11.83;;;10.63;;
3405;SDS011;10008;48.682;9.016;2022-07-24T06:27:49;12.10;;;10.90;;
3405;SDS011;10008;48.682;9.016;2022-07-24T06:30:17;11.97;;;10.73;;
3405;SDS011;10008;48.682;9.016;2022-07-24T06:32:47;12.00;;;10.80;;
3405;SDS011;10008;48.682;9.016;2022-07-24T06:35:13;10.83;;;9.73;;
3405;SDS011;10008;48.682;9.016;2022-07-24T06:37:39;11.70;;;10.50;;
3405;SDS011;10008;48.682;9.016;2022-07-24T06:40:05;13.97;;;11.13;;
3405;SDS011;10008;48.682;9.016;2022-07-24T06:42:32;11.00;;;9.90;;
3405;SDS011;10008;48.682;9.016;2022-07-24T06:44:58;13.63;;;10.53;;
3405;SDS011;10008;48.682;9.016;2022-07-24T06:47:24;12.13;;;10.23;;
3405;SDS011;10008;48.682;9.016;2022-07-24T06:49:51;11.90;;;10.70;;
3405;SDS011;10008;48.682;9.016;2022-07-24T06:52:18;10.30;;;9.20;;
3405;SDS011;10008;48.682;9.016;2022-07-24T06:54:44;10.20;;;9.13;;
3405;SDS011;10008;48.682;9.016;2022-07-24T06:57:10;10.50;;;9.40;;
3405;SDS011;10008;48.682;9.016;2022-07-24T06:59:36;10.30;;;8.73;;
3405;SDS011;10008;48.682;9.016;2022-07-24T07:02:01;10.03;;;8.73;;
3405;SDS011;10008;48.682;9.016;2022-07-24T07:04:27;9.80;;;8.17;;
3405;SDS011;10008;48.682;9.016;2022-07-24T07:06:53;8.83;;;7.93;;
3405;SDS011;10008;48.682;9.016;2022-07-24T07:09:19;8.90;;;8.00;;
3405;SDS011;10008;48.682;9.016;2022-07-24T07:11:45;10.60;;;8.10;;
3405;SDS011;10008;48.682;9.016;2022-07-24T07:14:10;9.27;;;8.20;;
3405;SDS011;10008;48.682;9.016;2022-07-24T07:16:36;10.03;;;9.03;;
3405;SDS011;10008;48.682;9.016;2022-07-24T07:19:02;11.33;;;9.30;;
3405;SDS011;10008;48.682;9.016;2022-07-24T07:21:28;9.53;;;8.53;;
3405;SDS011;10008;48.682;9.016;2022-07-24T07:23:54;8.80;;;7.90;;
3405;SDS011;10008;48.682;9.016;2022-07-24T07:26:19;9.30;;;8.20;;
3405;SDS011;10008;48.682;9.016;2022-07-24T07:28:45;9.60;;;8.00;;
3405;SDS011;10008;48.682;9.016;2022-07-24T07:31:11;10.97;;;7.80;;
3405;SDS011;10008;48.682;9.016;2022-07-24T07:33:37;10.50;;;8.27;;
3405;SDS011;10008;48.682;9.016;2022-07-24T07:36:03;9.50;;;7.50;;
3405;SDS011;10008;48.682;9.016;2022-07-24T07:38:29;11.20;;;7.77;;
3405;SDS011;10008;48.682;9.016;2022-07-24T07:40:55;8.83;;;7.87;;
3405;SDS011;10008;48.682;9.016;2022-07-24T07:43:20;11.87;;;8.50;;
3405;SDS011;10008;48.682;9.016;2022-07-24T07:45:46;10.57;;;8.10;;
3405;SDS011;10008;48.682;9.016;2022-07-24T07:48:12;11.10;;;8.80;;
3405;SDS011;10008;48.682;9.016;2022-07-24T07:50:38;14.13;;;12.77;;
3405;SDS011;10008;48.682;9.016;2022-07-24T07:53:04;10.83;;;9.30;;
3405;SDS011;10008;48.682;9.016;2022-07-24T07:55:29;8.93;;;7.20;;
3405;SDS011;10008;48.682;9.016;2022-07-24T07:57:55;9.00;;;7.40;;
3405;SDS011;10008;48.682;9.016;2022-07-24T08:00:21;9.07;;;7.60;;
3405;SDS011;10008;48.682;9.016;2022-07-24T08:02:47;11.93;;;8.10;;
3405;SDS011;10008;48.682;9.016;2022-07-24T08:05:13;8.00;;;7.20;;
3405;SDS011;10008;48.682;9.016;2022-07-24T08:07:38;9.40;;;7.47;;
3405;SDS011;10008;48.682;9.016;2022-07-24T08:10:05;10.13;;;7.90;;
3405;SDS011;10008;48.682;9.016;2022-07-24T08:12:31;8.67;;;7.40;;
3405;SDS011;10008;48.682;9.016;2022-07-24T08:14:57;8.90;;;7.73;;
3405;SDS011;10008;48.682;9.016;2022-07-24T08:17:22;8.40;;;7.40;;
3405;SDS011;10008;48.682;9.016;2022-07-24T08:19:48;7.93;;;6.73;;
3405;SDS011;10008;48.682;9.016;2022-07-24T08:22:14;10.10;;;8.00;;
3405;SDS011;10008;48.682;9.016;2022-07-24T08:24:40;7.73;;;6.93;;
3405;SDS011;10008;48.682;9.016;2022-07-24T08:27:05;10.90;;;8.20;;
3405;SDS011;10008;48.682;9.016;2022-07-24T08:29:31;13.53;;;7.60;;
3405;SDS011;10008;48.682;9.016;2022-07-24T08:31:57;9.20;;;8.13;;
3405;SDS011;10008;48.682;9.016;2022-07-24T08:34:23;9.97;;;7.60;;
3405;SDS011;10008;48.682;9.016;2022-07-24T08:36:49;10.10;;;8.23;;
3405;SDS011;10008;48.682;9.016;2022-07-24T08:39:15;9.17;;;7.73;;
3405;SDS011;10008;48.682;9.016;2022-07-24T08:41:42;8.77;;;7.83;;
3405;SDS011;10008;48.682;9.016;2022-07-24T08:44:08;8.60;;;7.70;;
3405;SDS011;10008;48.682;9.016;2022-07-24T08:46:38;8.83;;;7.93;;
3405;SDS011;10008;48.682;9.016;2022-07-24T08:49:14;8.33;;;7.13;;
3405;SDS011;10008;48.682;9.016;2022-07-24T08:51:41;8.50;;;7.60;;
3405;SDS011;10008;48.682;9.016;2022-07-24T08:54:09;9.07;;;7.17;;
3405;SDS011;10008;48.682;9.016;2022-07-24T08:56:41;10.10;;;8.10;;
3405;SDS011;10008;48.682;9.016;2022-07-24T08:59:25;7.80;;;6.83;;
3405;SDS011;10008;48.682;9.016;2022-07-24T09:01:51;8.60;;;7.70;;
3405;SDS011;10008;48.682;9.016;2022-07-24T09:07:06;9.27;;;7.70;;
3405;SDS011;10008;48.682;9.016;2022-07-24T09:09:37;9.00;;;7.83;;
3405;SDS011;10008;48.682;9.016;2022-07-24T09:12:14;9.10;;;7.10;;
3405;SDS011;10008;48.682;9.016;2022-07-24T09:14:42;10.63;;;7.53;;
3405;SDS011;10008;48.682;9.016;2022-07-24T09:17:11;8.40;;;7.50;;
3405;SDS011;10008;48.682;9.016;2022-07-24T09:19:48;9.67;;;7.07;;
3405;SDS011;10008;48.682;9.016;2022-07-24T09:27:52;8.33;;;7.20;;
3405;SDS011;10008;48.682;9.016;2022-07-24T09:32:54;9.33;;;7.70;;
3405;SDS011;10008;48.682;9.016;2022-07-24T09:35:33;8.93;;;8.03;;
3405;SDS011;10008;48.682;9.016;2022-07-24T09:38:05;10.43;;;8.37;;
3405;SDS011;10008;48.682;9.016;2022-07-24T09:40:33;8.73;;;7.73;;
3405;SDS011;10008;48.682;9.016;2022-07-24T09:46:00;9.23;;;7.30;;
3405;SDS011;10008;48.682;9.016;2022-07-24T09:51:19;8.93;;;7.97;;
3405;SDS011;10008;48.682;9.016;2022-07-24T09:53:46;9.47;;;8.40;;
3405;SDS011;10008;48.682;9.016;2022-07-24T09:56:17;9.27;;;7.90;;
3405;SDS011;10008;48.682;9.016;2022-07-24T10:01:14;8.57;;;7.67;;
3405;SDS011;10008;48.682;9.016;2022-07-24T10:03:41;8.60;;;7.77;;
3405;SDS011;10008;48.682;9.016;2022-07-24T10:06:10;10.03;;;8.00;;
3405;SDS011;10008;48.682;9.016;2022-07-24T10:08:39;8.40;;;7.23;;
3405;SDS011;10008;48.682;9.016;2022-07-24T10:11:08;7.90;;;7.10;;
3405;SDS011;10008;48.682;9.016;2022-07-24T10:13:35;8.50;;;7.20;;
3405;SDS011;10008;48.682;9.016;2022-07-24T10:21:11;10.30;;;7.40;;
3405;SDS011;10008;48.682;9.016;2022-07-24T10:26:31;9.17;;;8.00;;
3405;SDS011;10008;48.682;9.016;2022-07-24T10:29:03;8.83;;;7.93;;
3405;SDS011;10008;48.682;9.016;2022-07-24T10:31:38;10.23;;;8.70;;
3405;SDS011;10008;48.682;9.016;2022-07-24T10:39:36;8.80;;;7.87;;
3405;SDS011;10008;48.682;9.016;2022-07-24T10:42:15;9.50;;;8.50;;
3405;SDS011;10008;48.682;9.016;2022-07-24T10:44:41;9.40;;;8.37;;
3405;SDS011;10008;48.682;9.016;2022-07-24T10:47:10;10.87;;;8.57;;
3405;SDS011;10008;48.682;9.016;2022-07-24T10:49:50;9.50;;;7.97;;
3405;SDS011;10008;48.682;9.016;2022-07-24T10:52:23;9.20;;;8.30;;
3405;SDS011;10008;48.682;9.016;2022-07-24T10:57:47;9.60;;;8.70;;
3405;SDS011;10008;48.682;9.016;2022-07-24T11:00:22;10.40;;;8.53;;
3405;SDS011;10008;48.682;9.016;2022-07-24T11:03:04;10.40;;;9.30;;
3405;SDS011;10008;48.682;9.016;2022-07-24T11:05:33;9.17;;;8.27;;
3405;SDS011;10008;48.682;9.016;2022-07-24T11:10:46;10.87;;;9.77;;
3405;SDS011;10008;48.682;9.016;2022-07-24T11:16:16;10.30;;;9.30;;
3405;SDS011;10008;48.682;9.016;2022-07-24T11:19:23;10.67;;;9.10;;
3405;SDS011;10008;48.682;9.016;2022-07-24T11:21:28;17.80;;;15.67;;
3405;SDS011;10008;48.682;9.016;2022-07-24T11:27:02;10.80;;;9.80;;
3405;SDS011;10008;48.682;9.016;2022-07-24T11:29:31;9.83;;;8.83;;
3405;SDS011;10008;48.682;9.016;2022-07-24T11:32:04;12.90;;;8.70;;
3405;SDS011;10008;48.682;9.016;2022-07-24T11:34:33;9.50;;;8.60;;
3405;SDS011;10008;48.682;9.016;2022-07-24T11:37:00;9.43;;;8.53;;
3405;SDS011;10008;48.682;9.016;2022-07-24T11:41:59;9.87;;;8.87;;
3405;SDS011;10008;48.682;9.016;2022-07-24T11:47:04;9.40;;;8.50;;
3405;SDS011;10008;48.682;9.016;2022-07-24T11:49:39;9.70;;;7.67;;
3405;SDS011;10008;48.682;9.016;2022-07-24T11:52:13;10.70;;;8.40;;
3405;SDS011;10008;48.682;9.016;2022-07-24T11:54:49;8.47;;;7.63;;
3405;SDS011;10008;48.682;9.016;2022-07-24T11:57:17;10.57;;;8.60;;
3405;SDS011;10008;48.682;9.016;2022-07-24T11:59:44;9.60;;;8.10;;
3405;SDS011;10008;48.682;9.016;2022-07-24T12:02:11;8.57;;;7.77;;
3405;SDS011;10008;48.682;9.016;2022-07-24T12:04:38;9.00;;;7.70;;
3405;SDS011;10008;48.682;9.016;2022-07-24T12:07:09;9.67;;;8.77;;
3405;SDS011;10008;48.682;9.016;2022-07-24T12:09:53;12.00;;;9.27;;
3405;SDS011;10008;48.682;9.016;2022-07-24T12:12:20;8.97;;;8.10;;
3405;SDS011;10008;48.682;9.016;2022-07-24T12:15:01;9.93;;;8.40;;
3405;SDS011;10008;48.682;9.016;2022-07-24T12:17:28;9.40;;;8.50;;
3405;SDS011;10008;48.682;9.016;2022-07-24T12:19:55;9.87;;;8.90;;
3405;SDS011;10008;48.682;9.016;2022-07-24T12:22:23;10.80;;;8.70;;
3405;SDS011;10008;48.682;9.016;2022-07-24T12:24:51;9.23;;;8.03;;
3405;SDS011;10008;48.682;9.016;2022-07-24T12:30:04;9.80;;;8.20;;
3405;SDS011;10008;48.682;9.016;2022-07-24T12:32:53;8.50;;;7.60;;
3405;SDS011;10008;48.682;9.016;2022-07-24T12:35:20;9.83;;;7.07;;
3405;SDS011;10008;48.682;9.016;2022-07-24T12:37:46;8.30;;;7.40;;
3405;SDS011;10008;48.682;9.016;2022-07-24T12:40:22;8.50;;;7.60;;
3405;SDS011;10008;48.682;9.016;2022-07-24T12:43:12;9.00;;;7.40;;
3405;SDS011;10008;48.682;9.016;2022-07-24T12:45:38;7.83;;;7.03;;
3405;SDS011;10008;48.682;9.016;2022-07-24T12:48:12;8.47;;;7.57;;
3405;SDS011;10008;48.682;9.016;2022-07-24T12:50:59;10.60;;;7.90;;
3405;SDS011;10008;48.682;9.016;2022-07-24T12:53:27;8.87;;;7.33;;
3405;SDS011;10008;48.682;9.016;2022-07-24T12:58:50;8.40;;;7.50;;
3405;SDS011;10008;48.682;9.016;2022-07-24T13:01:21;11.13;;;7.87;;
3405;SDS011;10008;48.682;9.016;2022-07-24T13:03:59;10.50;;;7.90;;
3405;SDS011;10008;48.682;9.016;2022-07-24T13:06:37;8.93;;;8.03;;
3405;SDS011;10008;48.682;9.016;2022-07-24T13:09:09;8.00;;;4.90;;
3405;SDS011;10008;48.682;9.016;2022-07-24T13:11:36;9.47;;;7.83;;
3405;SDS011;10008;48.682;9.016;2022-07-24T13:14:03;9.33;;;8.27;;
3405;SDS011;10008;48.682;9.016;2022-07-24T13:16:31;11.30;;;7.90;;
3405;SDS011;10008;48.682;9.016;2022-07-24T13:18:58;8.70;;;7.77;;
3405;SDS011;10008;48.682;9.016;2022-07-24T13:21:25;9.23;;;7.53;;
3405;SDS011;10008;48.682;9.016;2022-07-24T13:23:52;8.60;;;7.80;;
3405;SDS011;10008;48.682;9.016;2022-07-24T13:26:18;9.10;;;8.20;;
3405;SDS011;10008;48.682;9.016;2022-07-24T13:28:44;8.30;;;7.33;;
3405;SDS011;10008;48.682;9.016;2022-07-24T13:31:10;9.13;;;7.60;;
3405;SDS011;10008;48.682;9.016;2022-07-24T13:33:36;8.33;;;6.93;;
3405;SDS011;10008;48.682;9.016;2022-07-24T13:36:02;8.03;;;7.17;;
3405;SDS011;10008;48.682;9.016;2022-07-24T13:38:29;7.50;;;6.70;;
3405;SDS011;10008;48.682;9.016;2022-07-24T13:40:55;8.10;;;6.60;;
3405;SDS011;10008;48.682;9.016;2022-07-24T13:43:21;9.27;;;7.37;;
3405;SDS011;10008;48.682;9.016;2022-07-24T13:45:47;8.30;;;7.50;;
3405;SDS011;10008;48.682;9.016;2022-07-24T13:48:12;8.10;;;7.30;;
3405;SDS011;10008;48.682;9.016;2022-07-24T13:50:38;7.47;;;6.67;;
3405;SDS011;10008;48.682;9.016;2022-07-24T13:53:04;8.27;;;6.90;;
3405;SDS011;10008;48.682;9.016;2022-07-24T13:55:31;7.93;;;7.13;;
3405;SDS011;10008;48.682;9.016;2022-07-24T13:57:57;9.57;;;7.97;;
3405;SDS011;10008;48.682;9.016;2022-07-24T14:00:23;10.60;;;6.93;;
3405;SDS011;10008;48.682;9.016;2022-07-24T14:02:50;8.37;;;7.40;;
3405;SDS011;10008;48.682;9.016;2022-07-24T14:05:21;8.17;;;7.33;;
3405;SDS011;10008;48.682;9.016;2022-07-24T14:07:47;9.63;;;8.63;;
3405;SDS011;10008;48.682;9.016;2022-07-24T14:10:13;15.03;;;13.70;;
3405;SDS011;10008;48.682;9.016;2022-07-24T14:12:39;11.40;;;10.20;;
3405;SDS011;10008;48.682;9.016;2022-07-24T14:15:05;9.90;;;7.60;;
3405;SDS011;10008;48.682;9.016;2022-07-24T14:17:31;8.50;;;7.10;;
3405;SDS011;10008;48.682;9.016;2022-07-24T14:19:57;9.87;;;8.40;;
3405;SDS011;10008;48.682;9.016;2022-07-24T14:22:23;9.03;;;8.13;;
3405;SDS011;10008;48.682;9.016;2022-07-24T14:24:49;9.33;;;8.33;;
3405;SDS011;10008;48.682;9.016;2022-07-24T14:27:14;15.67;;;14.07;;
3405;SDS011;10008;48.682;9.016;2022-07-24T14:29:40;11.03;;;9.93;;
3405;SDS011;10008;48.682;9.016;2022-07-24T14:32:06;9.33;;;8.33;;
3405;SDS011;10008;48.682;9.016;2022-07-24T14:34:32;8.13;;;7.33;;
3405;SDS011;10008;48.682;9.016;2022-07-24T14:36:58;8.60;;;7.47;;
3405;SDS011;10008;48.682;9.016;2022-07-24T14:39:23;7.47;;;6.60;;
3405;SDS011;10008;48.682;9.016;2022-07-24T14:41:49;8.20;;;7.40;;
3405;SDS011;10008;48.682;9.016;2022-07-24T14:44:15;8.30;;;7.50;;
3405;SDS011;10008;48.682;9.016;2022-07-24T14:46:41;9.00;;;8.10;;
3405;SDS011;10008;48.682;9.016;2022-07-24T14:49:07;8.20;;;6.60;;
3405;SDS011;10008;48.682;9.016;2022-07-24T14:51:33;7.73;;;6.93;;
3405;SDS011;10008;48.682;9.016;2022-07-24T14:53:59;9.10;;;7.13;;
3405;SDS011;10008;48.682;9.016;2022-07-24T14:56:25;10.30;;;6.80;;
3405;SDS011;10008;48.682;9.016;2022-07-24T14:58:51;7.60;;;6.80;;
3405;SDS011;10008;48.682;9.016;2022-07-24T15:01:17;9.67;;;6.80;;
3405;SDS011;10008;48.682;9.016;2022-07-24T15:03:43;8.00;;;7.20;;
3405;SDS011;10008;48.682;9.016;2022-07-24T15:06:08;8.20;;;7.40;;
3405;SDS011;10008;48.682;9.016;2022-07-24T15:08:34;8.27;;;7.37;;
3405;SDS011;10008;48.682;9.016;2022-07-24T15:11:00;7.40;;;6.70;;
3405;SDS011;10008;48.682;9.016;2022-07-24T15:13:26;9.07;;;7.63;;
3405;SDS011;10008;48.682;9.016;2022-07-24T15:15:51;9.07;;;8.13;;
3405;SDS011;10008;48.682;9.016;2022-07-24T15:18:17;8.33;;;7.43;;
3405;SDS011;10008;48.682;9.016;2022-07-24T15:20:43;9.13;;;7.70;;
3405;SDS011;10008;48.682;9.016;2022-07-24T15:23:09;7.30;;;6.50;;
3405;SDS011;10008;48.682;9.016;2022-07-24T15:25:36;8.90;;;7.40;;
3405;SDS011;10008;48.682;9.016;2022-07-24T15:28:02;8.30;;;7.40;;
3405;SDS011;10008;48.682;9.016;2022-07-24T15:30:27;8.07;;;7.27;;
3405;SDS011;10008;48.682;9.016;2022-07-24T15:32:53;8.17;;;7.37;;
3405;SDS011;10008;48.682;9.016;2022-07-24T15:35:19;8.50;;;7.43;;
3405;SDS011;10008;48.682;9.016;2022-07-24T15:37:45;9.47;;;7.47;;
3405;SDS011;10008;48.682;9.016;2022-07-24T15:40:11;8.93;;;8.03;;